sensor_id;sensor_type;location;lat;lon;timestamp;P1;durP1;ratioP1;P2;durP2;ratioP2
39864;SDS011;25538;48.392;9.976;2022-09-03T00:01:56;2.97;;;2.77;;
39864;SDS011;25538;48.392;9.976;2022-09-03T00:04:31;3.47;;;2.90;;
39864;SDS011;25538;48.392;9.976;2022-09-03T00:07:16;2.47;;;2.37;;
39864;SDS011;25538;48.392;9.976;2022-09-03T00:09:55;5.53;;;2.60;;
39864;SDS011;25538;48.392;9.976;2022-09-03T00:12:27;3.33;;;2.83;;
39864;SDS011;25538;48.392;9.976;2022-09-03T00:15:02;3.10;;;2.90;;
39864;SDS011;25538;48.392;9.976;2022-09-03T00:17:32;2.83;;;2.63;;
39864;SDS011;25538;48.392;9.976;2022-09-03T00:20:54;2.97;;;2.70;;
39864;SDS011;25538;48.392;9.976;2022-09-03T00:23:02;3.27;;;2.93;;
39864;SDS011;25538;48.392;9.976;2022-09-03T00:25:37;3.10;;;2.90;;
39864;SDS011;25538;48.392;9.976;2022-09-03T00:28:15;3.03;;;2.20;;
39864;SDS011;25538;48.392;9.976;2022-09-03T00:30:44;2.87;;;2.67;;
39864;SDS011;25538;48.392;9.976;2022-09-03T00:33:19;5.10;;;3.27;;
39864;SDS011;25538;48.392;9.976;2022-09-03T00:36:22;3.00;;;2.88;;
39864;SDS011;25538;48.392;9.976;2022-09-03T00:38:42;3.80;;;3.07;;
39864;SDS011;25538;48.392;9.976;2022-09-03T00:41:22;2.80;;;2.60;;
39864;SDS011;25538;48.392;9.976;2022-09-03T00:49:44;3.40;;;3.10;;
39864;SDS011;25538;48.392;9.976;2022-09-03T01:00:15;2.75;;;2.55;;
39864;SDS011;25538;48.392;9.976;2022-09-03T01:26:07;3.77;;;3.40;;
39864;SDS011;25538;48.392;9.976;2022-09-03T01:29:26;4.00;;;3.40;;
39864;SDS011;25538;48.392;9.976;2022-09-03T01:31:39;3.78;;;3.40;;
39864;SDS011;25538;48.392;9.976;2022-09-03T01:45:39;3.53;;;2.85;;
39864;SDS011;25538;48.392;9.976;2022-09-03T01:59:14;4.28;;;3.88;;
39864;SDS011;25538;48.392;9.976;2022-09-03T02:05:03;3.78;;;3.35;;
39864;SDS011;25538;48.392;9.976;2022-09-03T02:07:37;3.60;;;3.30;;
39864;SDS011;25538;48.392;9.976;2022-09-03T02:10:16;3.42;;;3.22;;
39864;SDS011;25538;48.392;9.976;2022-09-03T02:12:51;3.20;;;3.00;;
39864;SDS011;25538;48.392;9.976;2022-09-03T02:15:21;3.50;;;3.20;;
39864;SDS011;25538;48.392;9.976;2022-09-03T02:17:50;3.78;;;3.40;;
39864;SDS011;25538;48.392;9.976;2022-09-03T02:20:22;3.83;;;3.35;;
39864;SDS011;25538;48.392;9.976;2022-09-03T02:22:51;4.10;;;3.25;;
39864;SDS011;25538;48.392;9.976;2022-09-03T02:25:18;3.50;;;3.20;;
39864;SDS011;25538;48.392;9.976;2022-09-03T02:27:48;3.83;;;3.63;;
39864;SDS011;25538;48.392;9.976;2022-09-03T02:30:15;4.28;;;3.88;;
39864;SDS011;25538;48.392;9.976;2022-09-03T02:32:42;3.88;;;3.58;;
39864;SDS011;25538;48.392;9.976;2022-09-03T02:35:08;3.90;;;3.50;;
39864;SDS011;25538;48.392;9.976;2022-09-03T02:37:34;3.47;;;3.28;;
39864;SDS011;25538;48.392;9.976;2022-09-03T02:40:01;3.63;;;3.33;;
39864;SDS011;25538;48.392;9.976;2022-09-03T02:42:31;3.20;;;3.00;;
39864;SDS011;25538;48.392;9.976;2022-09-03T02:44:59;4.40;;;3.90;;
39864;SDS011;25538;48.392;9.976;2022-09-03T02:47:46;4.13;;;3.72;;
39864;SDS011;25538;48.392;9.976;2022-09-03T02:50:16;3.70;;;3.50;;
39864;SDS011;25538;48.392;9.976;2022-09-03T02:52:42;3.63;;;3.37;;
39864;SDS011;25538;48.392;9.976;2022-09-03T02:55:08;3.55;;;3.35;;
39864;SDS011;25538;48.392;9.976;2022-09-03T02:57:34;3.75;;;3.55;;
39864;SDS011;25538;48.392;9.976;2022-09-03T03:00:00;4.70;;;3.88;;
39864;SDS011;25538;48.392;9.976;2022-09-03T03:02:27;3.80;;;3.50;;
39864;SDS011;25538;48.392;9.976;2022-09-03T03:04:52;3.40;;;3.20;;
39864;SDS011;25538;48.392;9.976;2022-09-03T03:07:19;3.78;;;3.35;;
39864;SDS011;25538;48.392;9.976;2022-09-03T03:09:45;3.60;;;3.40;;
39864;SDS011;25538;48.392;9.976;2022-09-03T03:12:11;3.40;;;3.20;;
39864;SDS011;25538;48.392;9.976;2022-09-03T03:14:37;3.77;;;3.50;;
39864;SDS011;25538;48.392;9.976;2022-09-03T03:17:03;4.00;;;3.63;;
39864;SDS011;25538;48.392;9.976;2022-09-03T03:19:29;3.40;;;3.20;;
39864;SDS011;25538;48.392;9.976;2022-09-03T03:21:55;3.47;;;3.27;;
39864;SDS011;25538;48.392;9.976;2022-09-03T03:24:21;3.60;;;3.40;;
39864;SDS011;25538;48.392;9.976;2022-09-03T03:26:47;3.93;;;3.67;;
39864;SDS011;25538;48.392;9.976;2022-09-03T03:29:13;4.50;;;4.10;;
39864;SDS011;25538;48.392;9.976;2022-09-03T03:31:42;4.00;;;3.78;;
39864;SDS011;25538;48.392;9.976;2022-09-03T03:34:08;4.70;;;4.30;;
39864;SDS011;25538;48.392;9.976;2022-09-03T03:36:34;4.03;;;3.80;;
39864;SDS011;25538;48.392;9.976;2022-09-03T03:39:00;3.57;;;3.30;;
39864;SDS011;25538;48.392;9.976;2022-09-03T03:41:28;4.05;;;3.47;;
39864;SDS011;25538;48.392;9.976;2022-09-03T03:43:56;5.05;;;3.30;;
39864;SDS011;25538;48.392;9.976;2022-09-03T03:46:24;3.95;;;3.45;;
39864;SDS011;25538;48.392;9.976;2022-09-03T03:48:54;4.13;;;3.83;;
39864;SDS011;25538;48.392;9.976;2022-09-03T03:51:20;4.80;;;3.70;;
39864;SDS011;25538;48.392;9.976;2022-09-03T03:53:46;4.23;;;3.80;;
39864;SDS011;25538;48.392;9.976;2022-09-03T03:56:13;3.45;;;3.25;;
39864;SDS011;25538;48.392;9.976;2022-09-03T03:58:40;3.55;;;3.35;;
39864;SDS011;25538;48.392;9.976;2022-09-03T04:01:15;4.03;;;3.72;;
39864;SDS011;25538;48.392;9.976;2022-09-03T04:03:42;4.05;;;3.75;;
39864;SDS011;25538;48.392;9.976;2022-09-03T04:06:09;4.15;;;3.83;;
39864;SDS011;25538;48.392;9.976;2022-09-03T04:08:38;3.50;;;3.30;;
39864;SDS011;25538;48.392;9.976;2022-09-03T04:11:07;4.05;;;3.65;;
39864;SDS011;25538;48.392;9.976;2022-09-03T04:13:36;3.72;;;3.38;;
39864;SDS011;25538;48.392;9.976;2022-09-03T04:16:05;3.40;;;3.20;;
39864;SDS011;25538;48.392;9.976;2022-09-03T04:18:34;3.63;;;3.42;;
39864;SDS011;25538;48.392;9.976;2022-09-03T04:21:02;4.05;;;3.85;;
39864;SDS011;25538;48.392;9.976;2022-09-03T04:23:31;3.83;;;3.63;;
39864;SDS011;25538;48.392;9.976;2022-09-03T04:26:05;4.00;;;3.67;;
39864;SDS011;25538;48.392;9.976;2022-09-03T04:28:32;3.97;;;3.67;;
39864;SDS011;25538;48.392;9.976;2022-09-03T04:31:02;4.30;;;3.95;;
39864;SDS011;25538;48.392;9.976;2022-09-03T04:33:33;3.47;;;3.17;;
39864;SDS011;25538;48.392;9.976;2022-09-03T04:36:01;7.70;;;3.90;;
39864;SDS011;25538;48.392;9.976;2022-09-03T04:38:31;4.13;;;3.70;;
39864;SDS011;25538;48.392;9.976;2022-09-03T04:40:58;4.15;;;3.85;;
39864;SDS011;25538;48.392;9.976;2022-09-03T04:43:25;4.18;;;3.97;;
39864;SDS011;25538;48.392;9.976;2022-09-03T04:45:55;4.47;;;4.18;;
39864;SDS011;25538;48.392;9.976;2022-09-03T04:48:24;3.83;;;3.63;;
39864;SDS011;25538;48.392;9.976;2022-09-03T04:50:51;4.53;;;4.13;;
39864;SDS011;25538;48.392;9.976;2022-09-03T04:53:19;4.55;;;4.22;;
39864;SDS011;25538;48.392;9.976;2022-09-03T04:55:45;3.90;;;3.70;;
39864;SDS011;25538;48.392;9.976;2022-09-03T04:58:11;4.43;;;4.13;;
39864;SDS011;25538;48.392;9.976;2022-09-03T05:00:37;4.55;;;4.25;;
39864;SDS011;25538;48.392;9.976;2022-09-03T05:03:03;3.90;;;3.60;;
39864;SDS011;25538;48.392;9.976;2022-09-03T05:05:30;3.90;;;3.60;;
39864;SDS011;25538;48.392;9.976;2022-09-03T05:08:01;3.65;;;3.45;;
39864;SDS011;25538;48.392;9.976;2022-09-03T05:10:28;3.60;;;3.30;;
39864;SDS011;25538;48.392;9.976;2022-09-03T05:13:04;4.47;;;4.18;;
39864;SDS011;25538;48.392;9.976;2022-09-03T05:15:31;3.75;;;3.55;;
39864;SDS011;25538;48.392;9.976;2022-09-03T05:18:01;4.65;;;4.40;;
39864;SDS011;25538;48.392;9.976;2022-09-03T05:20:28;4.38;;;4.07;;
39864;SDS011;25538;48.392;9.976;2022-09-03T05:23:04;4.75;;;4.45;;
39864;SDS011;25538;48.392;9.976;2022-09-03T05:25:30;4.85;;;4.30;;
39864;SDS011;25538;48.392;9.976;2022-09-03T05:27:59;4.68;;;4.47;;
39864;SDS011;25538;48.392;9.976;2022-09-03T05:30:26;4.25;;;4.00;;
39864;SDS011;25538;48.392;9.976;2022-09-03T05:32:52;5.00;;;4.60;;
39864;SDS011;25538;48.392;9.976;2022-09-03T05:35:18;5.33;;;4.93;;
39864;SDS011;25538;48.392;9.976;2022-09-03T05:37:44;4.60;;;4.30;;
39864;SDS011;25538;48.392;9.976;2022-09-03T05:40:10;5.22;;;4.75;;
39864;SDS011;25538;48.392;9.976;2022-09-03T05:42:36;5.22;;;4.82;;
39864;SDS011;25538;48.392;9.976;2022-09-03T05:45:06;5.00;;;4.70;;
39864;SDS011;25538;48.392;9.976;2022-09-03T05:47:38;4.45;;;4.05;;
39864;SDS011;25538;48.392;9.976;2022-09-03T05:50:07;4.97;;;4.20;;
39864;SDS011;25538;48.392;9.976;2022-09-03T05:52:35;6.15;;;4.97;;
39864;SDS011;25538;48.392;9.976;2022-09-03T05:55:02;4.93;;;4.57;;
39864;SDS011;25538;48.392;9.976;2022-09-03T05:57:28;4.70;;;4.30;;
39864;SDS011;25538;48.392;9.976;2022-09-03T05:59:55;4.75;;;4.35;;
39864;SDS011;25538;48.392;9.976;2022-09-03T06:02:21;4.88;;;4.65;;
39864;SDS011;25538;48.392;9.976;2022-09-03T06:04:47;5.25;;;4.85;;
39864;SDS011;25538;48.392;9.976;2022-09-03T06:07:13;6.00;;;5.50;;
39864;SDS011;25538;48.392;9.976;2022-09-03T06:09:39;5.60;;;5.10;;
39864;SDS011;25538;48.392;9.976;2022-09-03T06:12:06;4.85;;;4.45;;
39864;SDS011;25538;48.392;9.976;2022-09-03T06:14:32;5.15;;;4.85;;
39864;SDS011;25538;48.392;9.976;2022-09-03T06:16:58;5.50;;;5.10;;
39864;SDS011;25538;48.392;9.976;2022-09-03T06:19:24;5.73;;;5.23;;
39864;SDS011;25538;48.392;9.976;2022-09-03T06:21:50;6.10;;;5.70;;
39864;SDS011;25538;48.392;9.976;2022-09-03T06:24:16;5.90;;;5.40;;
39864;SDS011;25538;48.392;9.976;2022-09-03T06:26:51;6.38;;;5.70;;
39864;SDS011;25538;48.392;9.976;2022-09-03T06:29:17;5.60;;;5.20;;
39864;SDS011;25538;48.392;9.976;2022-09-03T06:31:44;5.40;;;5.00;;
39864;SDS011;25538;48.392;9.976;2022-09-03T06:34:12;5.40;;;5.03;;
39864;SDS011;25538;48.392;9.976;2022-09-03T06:36:39;5.20;;;4.88;;
39864;SDS011;25538;48.392;9.976;2022-09-03T06:39:07;6.10;;;4.83;;
39864;SDS011;25538;48.392;9.976;2022-09-03T06:41:33;6.07;;;5.67;;
39864;SDS011;25538;48.392;9.976;2022-09-03T06:44:00;6.00;;;5.60;;
39864;SDS011;25538;48.392;9.976;2022-09-03T06:46:32;5.73;;;5.43;;
39864;SDS011;25538;48.392;9.976;2022-09-03T06:48:59;6.38;;;5.97;;
39864;SDS011;25538;48.392;9.976;2022-09-03T06:51:27;5.30;;;5.00;;
39864;SDS011;25538;48.392;9.976;2022-09-03T06:53:58;7.07;;;5.83;;
39864;SDS011;25538;48.392;9.976;2022-09-03T06:56:28;7.13;;;6.47;;
39864;SDS011;25538;48.392;9.976;2022-09-03T06:58:56;6.57;;;6.00;;
39864;SDS011;25538;48.392;9.976;2022-09-03T07:01:32;6.80;;;6.20;;
39864;SDS011;25538;48.392;9.976;2022-09-03T07:04:00;6.53;;;6.10;;
39864;SDS011;25538;48.392;9.976;2022-09-03T07:06:32;6.40;;;6.00;;
39864;SDS011;25538;48.392;9.976;2022-09-03T07:09:01;6.50;;;6.10;;
39864;SDS011;25538;48.392;9.976;2022-09-03T07:11:28;7.10;;;5.13;;
39864;SDS011;25538;48.392;9.976;2022-09-03T07:13:56;6.70;;;6.10;;
39864;SDS011;25538;48.392;9.976;2022-09-03T07:16:23;6.10;;;5.70;;
39864;SDS011;25538;48.392;9.976;2022-09-03T07:18:52;5.80;;;5.40;;
39864;SDS011;25538;48.392;9.976;2022-09-03T07:21:22;6.20;;;5.70;;
39864;SDS011;25538;48.392;9.976;2022-09-03T07:23:50;7.47;;;6.97;;
39864;SDS011;25538;48.392;9.976;2022-09-03T07:26:18;6.77;;;6.30;;
39864;SDS011;25538;48.392;9.976;2022-09-03T07:28:48;6.97;;;6.37;;
39864;SDS011;25538;48.392;9.976;2022-09-03T07:31:16;6.67;;;6.17;;
39864;SDS011;25538;48.392;9.976;2022-09-03T07:33:45;6.10;;;5.70;;
39864;SDS011;25538;48.392;9.976;2022-09-03T07:36:12;5.93;;;5.53;;
39864;SDS011;25538;48.392;9.976;2022-09-03T07:38:40;6.37;;;5.77;;
39864;SDS011;25538;48.392;9.976;2022-09-03T07:41:11;8.07;;;7.27;;
39864;SDS011;25538;48.392;9.976;2022-09-03T07:43:39;7.27;;;6.67;;
39864;SDS011;25538;48.392;9.976;2022-09-03T07:46:15;7.87;;;7.07;;
39864;SDS011;25538;48.392;9.976;2022-09-03T07:48:57;7.87;;;7.27;;
39864;SDS011;25538;48.392;9.976;2022-09-03T07:51:26;6.80;;;6.30;;
39864;SDS011;25538;48.392;9.976;2022-09-03T07:53:55;7.63;;;7.03;;
39864;SDS011;25538;48.392;9.976;2022-09-03T07:56:23;7.50;;;6.90;;
39864;SDS011;25538;48.392;9.976;2022-09-03T07:58:49;6.97;;;6.57;;
39864;SDS011;25538;48.392;9.976;2022-09-03T08:01:19;8.30;;;7.67;;
39864;SDS011;25538;48.392;9.976;2022-09-03T08:03:48;10.33;;;9.63;;
39864;SDS011;25538;48.392;9.976;2022-09-03T08:06:18;7.83;;;7.13;;
39864;SDS011;25538;48.392;9.976;2022-09-03T08:08:45;7.17;;;6.67;;
39864;SDS011;25538;48.392;9.976;2022-09-03T08:11:12;7.87;;;7.17;;
39864;SDS011;25538;48.392;9.976;2022-09-03T08:13:45;7.70;;;7.20;;
39864;SDS011;25538;48.392;9.976;2022-09-03T08:16:13;8.47;;;7.97;;
39864;SDS011;25538;48.392;9.976;2022-09-03T08:18:42;7.40;;;7.00;;
39864;SDS011;25538;48.392;9.976;2022-09-03T08:21:13;9.23;;;8.43;;
39864;SDS011;25538;48.392;9.976;2022-09-03T08:23:42;9.63;;;7.20;;
39864;SDS011;25538;48.392;9.976;2022-09-03T08:26:11;8.57;;;7.87;;
39864;SDS011;25538;48.392;9.976;2022-09-03T08:28:37;8.47;;;7.87;;
39864;SDS011;25538;48.392;9.976;2022-09-03T08:31:05;8.13;;;7.50;;
39864;SDS011;25538;48.392;9.976;2022-09-03T08:33:31;6.77;;;6.23;;
39864;SDS011;25538;48.392;9.976;2022-09-03T08:36:07;8.23;;;7.47;;
39864;SDS011;25538;48.392;9.976;2022-09-03T08:38:44;7.83;;;7.13;;
39864;SDS011;25538;48.392;9.976;2022-09-03T08:49:31;8.40;;;7.77;;
39864;SDS011;25538;48.392;9.976;2022-09-03T08:52:03;7.00;;;6.60;;
39864;SDS011;25538;48.392;9.976;2022-09-03T08:54:33;10.07;;;9.37;;
39864;SDS011;25538;48.392;9.976;2022-09-03T08:57:01;7.73;;;7.23;;
39864;SDS011;25538;48.392;9.976;2022-09-03T08:59:30;7.57;;;6.87;;
39864;SDS011;25538;48.392;9.976;2022-09-03T09:02:08;6.70;;;6.10;;
39864;SDS011;25538;48.392;9.976;2022-09-03T09:05:02;6.80;;;6.20;;
39864;SDS011;25538;48.392;9.976;2022-09-03T09:07:57;7.20;;;6.70;;
39864;SDS011;25538;48.392;9.976;2022-09-03T09:10:49;6.70;;;6.20;;
39864;SDS011;25538;48.392;9.976;2022-09-03T09:13:27;6.10;;;5.60;;
39864;SDS011;25538;48.392;9.976;2022-09-03T09:21:39;6.53;;;6.07;;
39864;SDS011;25538;48.392;9.976;2022-09-03T09:24:21;5.90;;;5.50;;
39864;SDS011;25538;48.392;9.976;2022-09-03T09:26:52;6.03;;;5.63;;
39864;SDS011;25538;48.392;9.976;2022-09-03T09:29:23;6.47;;;6.03;;
39864;SDS011;25538;48.392;9.976;2022-09-03T09:31:53;6.70;;;6.00;;
39864;SDS011;25538;48.392;9.976;2022-09-03T09:34:19;5.80;;;5.40;;
39864;SDS011;25538;48.392;9.976;2022-09-03T09:36:47;6.10;;;5.70;;
39864;SDS011;25538;48.392;9.976;2022-09-03T09:39:16;5.73;;;5.20;;
39864;SDS011;25538;48.392;9.976;2022-09-03T09:41:55;6.70;;;6.20;;
39864;SDS011;25538;48.392;9.976;2022-09-03T09:44:36;5.53;;;5.13;;
39864;SDS011;25538;48.392;9.976;2022-09-03T09:49:34;6.50;;;6.10;;
39864;SDS011;25538;48.392;9.976;2022-09-03T09:52:09;6.07;;;5.67;;
39864;SDS011;25538;48.392;9.976;2022-09-03T09:54:38;6.00;;;5.60;;
39864;SDS011;25538;48.392;9.976;2022-09-03T09:57:06;5.47;;;5.17;;
39864;SDS011;25538;48.392;9.976;2022-09-03T09:59:38;5.80;;;5.40;;
39864;SDS011;25538;48.392;9.976;2022-09-03T10:02:18;5.40;;;5.10;;
39864;SDS011;25538;48.392;9.976;2022-09-03T10:04:45;5.60;;;5.30;;
39864;SDS011;25538;48.392;9.976;2022-09-03T10:09:56;5.40;;;5.10;;
39864;SDS011;25538;48.392;9.976;2022-09-03T10:12:43;5.53;;;5.17;;
39864;SDS011;25538;48.392;9.976;2022-09-03T10:15:17;6.80;;;6.30;;
39864;SDS011;25538;48.392;9.976;2022-09-03T10:23:23;6.83;;;6.10;;
39864;SDS011;25538;48.392;9.976;2022-09-03T10:28:24;5.70;;;5.40;;
39864;SDS011;25538;48.392;9.976;2022-09-03T10:33:46;5.97;;;5.50;;
39864;SDS011;25538;48.392;9.976;2022-09-03T10:36:24;5.33;;;4.83;;
39864;SDS011;25538;48.392;9.976;2022-09-03T10:41:55;5.77;;;5.27;;
39864;SDS011;25538;48.392;9.976;2022-09-03T10:47:17;4.87;;;4.47;;
39864;SDS011;25538;48.392;9.976;2022-09-03T10:49:59;5.53;;;5.23;;
39864;SDS011;25538;48.392;9.976;2022-09-03T10:58:49;3.27;;;2.93;;
39864;SDS011;25538;48.392;9.976;2022-09-03T11:01:36;2.90;;;2.80;;
39864;SDS011;25538;48.392;9.976;2022-09-03T11:07:07;2.87;;;2.67;;
39864;SDS011;25538;48.392;9.976;2022-09-03T11:09:37;2.77;;;2.67;;
39864;SDS011;25538;48.392;9.976;2022-09-03T11:12:12;2.27;;;2.07;;
39864;SDS011;25538;48.392;9.976;2022-09-03T11:14:49;2.33;;;2.23;;
39864;SDS011;25538;48.392;9.976;2022-09-03T11:18:02;2.23;;;2.13;;
39864;SDS011;25538;48.392;9.976;2022-09-03T11:20:50;2.00;;;1.90;;
39864;SDS011;25538;48.392;9.976;2022-09-03T11:23:19;1.93;;;1.83;;
39864;SDS011;25538;48.392;9.976;2022-09-03T11:25:48;2.40;;;2.30;;
39864;SDS011;25538;48.392;9.976;2022-09-03T11:34:44;2.27;;;2.17;;
39864;SDS011;25538;48.392;9.976;2022-09-03T11:37:19;2.00;;;1.90;;
39864;SDS011;25538;48.392;9.976;2022-09-03T11:42:41;3.07;;;2.87;;
39864;SDS011;25538;48.392;9.976;2022-09-03T11:47:46;2.13;;;2.03;;
39864;SDS011;25538;48.392;9.976;2022-09-03T11:52:45;2.40;;;2.20;;
39864;SDS011;25538;48.392;9.976;2022-09-03T11:55:23;2.00;;;1.90;;
39864;SDS011;25538;48.392;9.976;2022-09-03T11:57:55;2.43;;;2.33;;
39864;SDS011;25538;48.392;9.976;2022-09-03T12:00:21;3.20;;;3.00;;
39864;SDS011;25538;48.392;9.976;2022-09-03T12:02:50;2.43;;;2.17;;
39864;SDS011;25538;48.392;9.976;2022-09-03T12:11:23;2.50;;;2.40;;
39864;SDS011;25538;48.392;9.976;2022-09-03T12:19:50;5.97;;;2.70;;
39864;SDS011;25538;48.392;9.976;2022-09-03T12:22:23;3.63;;;3.37;;
39864;SDS011;25538;48.392;9.976;2022-09-03T12:24:53;5.32;;;4.75;;
39864;SDS011;25538;48.392;9.976;2022-09-03T12:27:20;6.70;;;4.78;;
39864;SDS011;25538;48.392;9.976;2022-09-03T12:29:59;7.40;;;4.85;;
39864;SDS011;25538;48.392;9.976;2022-09-03T12:32:28;8.40;;;7.33;;
39864;SDS011;25538;48.392;9.976;2022-09-03T12:34:56;4.67;;;4.30;;
39864;SDS011;25538;48.392;9.976;2022-09-03T12:37:24;4.67;;;4.37;;
39864;SDS011;25538;48.392;9.976;2022-09-03T12:39:54;5.00;;;4.60;;
39864;SDS011;25538;48.392;9.976;2022-09-03T12:42:24;4.60;;;3.97;;
39864;SDS011;25538;48.392;9.976;2022-09-03T12:44:52;4.37;;;4.00;;
39864;SDS011;25538;48.392;9.976;2022-09-03T12:47:36;3.77;;;3.43;;
39864;SDS011;25538;48.392;9.976;2022-09-03T12:50:07;5.70;;;4.50;;
39864;SDS011;25538;48.392;9.976;2022-09-03T12:52:54;3.43;;;3.13;;
39864;SDS011;25538;48.392;9.976;2022-09-03T12:58:33;1.77;;;1.67;;
39864;SDS011;25538;48.392;9.976;2022-09-03T13:01:26;2.00;;;1.90;;
39864;SDS011;25538;48.392;9.976;2022-09-03T13:04:04;1.93;;;1.30;;
39864;SDS011;25538;48.392;9.976;2022-09-03T13:09:32;1.50;;;1.37;;
39864;SDS011;25538;48.392;9.976;2022-09-03T13:12:02;1.23;;;1.10;;
39864;SDS011;25538;48.392;9.976;2022-09-03T13:14:44;1.13;;;1.10;;
39864;SDS011;25538;48.392;9.976;2022-09-03T13:20:19;1.20;;;1.20;;
39864;SDS011;25538;48.392;9.976;2022-09-03T13:25:52;1.90;;;1.80;;
39864;SDS011;25538;48.392;9.976;2022-09-03T13:28:45;2.10;;;0.97;;
39864;SDS011;25538;48.392;9.976;2022-09-03T13:31:34;1.00;;;1.00;;
39864;SDS011;25538;48.392;9.976;2022-09-03T13:34:08;1.63;;;1.53;;
39864;SDS011;25538;48.392;9.976;2022-09-03T13:36:50;1.30;;;1.20;;
39864;SDS011;25538;48.392;9.976;2022-09-03T13:39:23;1.30;;;1.30;;
39864;SDS011;25538;48.392;9.976;2022-09-03T13:42:08;1.93;;;1.40;;
39864;SDS011;25538;48.392;9.976;2022-09-03T13:47:44;1.60;;;1.50;;
39864;SDS011;25538;48.392;9.976;2022-09-03T13:50:58;1.43;;;1.40;;
39864;SDS011;25538;48.392;9.976;2022-09-03T13:56:06;1.37;;;1.30;;
39864;SDS011;25538;48.392;9.976;2022-09-03T13:59:04;2.03;;;1.80;;
39864;SDS011;25538;48.392;9.976;2022-09-03T14:04:09;1.67;;;1.57;;
39864;SDS011;25538;48.392;9.976;2022-09-03T14:06:43;1.70;;;1.60;;
39864;SDS011;25538;48.392;9.976;2022-09-03T14:09:32;1.60;;;1.50;;
39864;SDS011;25538;48.392;9.976;2022-09-03T14:14:55;2.13;;;2.03;;
39864;SDS011;25538;48.392;9.976;2022-09-03T14:22:25;1.77;;;1.53;;
39864;SDS011;25538;48.392;9.976;2022-09-03T14:24:58;1.57;;;1.40;;
39864;SDS011;25538;48.392;9.976;2022-09-03T14:27:31;1.30;;;1.20;;
39864;SDS011;25538;48.392;9.976;2022-09-03T14:30:05;1.50;;;1.40;;
39864;SDS011;25538;48.392;9.976;2022-09-03T14:40:42;1.50;;;1.40;;
39864;SDS011;25538;48.392;9.976;2022-09-03T14:43:14;1.50;;;1.40;;
39864;SDS011;25538;48.392;9.976;2022-09-03T14:49:16;1.63;;;1.53;;
39864;SDS011;25538;48.392;9.976;2022-09-03T14:51:56;1.77;;;1.43;;
39864;SDS011;25538;48.392;9.976;2022-09-03T15:00:17;1.47;;;1.43;;
39864;SDS011;25538;48.392;9.976;2022-09-03T15:03:13;1.73;;;1.63;;
39864;SDS011;25538;48.392;9.976;2022-09-03T15:12:18;0.97;;;0.97;;
39864;SDS011;25538;48.392;9.976;2022-09-03T15:15:05;1.10;;;1.10;;
39864;SDS011;25538;48.392;9.976;2022-09-03T15:17:47;1.40;;;1.13;;
39864;SDS011;25538;48.392;9.976;2022-09-03T15:20:44;1.50;;;1.40;;
39864;SDS011;25538;48.392;9.976;2022-09-03T15:23:28;1.43;;;1.33;;
39864;SDS011;25538;48.392;9.976;2022-09-03T15:34:45;1.47;;;1.37;;
39864;SDS011;25538;48.392;9.976;2022-09-03T15:37:51;1.60;;;1.50;;
39864;SDS011;25538;48.392;9.976;2022-09-03T15:40:30;1.60;;;1.50;;
39864;SDS011;25538;48.392;9.976;2022-09-03T15:43:29;1.40;;;1.40;;
39864;SDS011;25538;48.392;9.976;2022-09-03T15:46:01;2.70;;;1.30;;
39864;SDS011;25538;48.392;9.976;2022-09-03T15:51:11;1.33;;;1.33;;
39864;SDS011;25538;48.392;9.976;2022-09-03T15:53:52;1.73;;;1.63;;
39864;SDS011;25538;48.392;9.976;2022-09-03T15:56:26;1.33;;;1.23;;
39864;SDS011;25538;48.392;9.976;2022-09-03T16:01:53;1.37;;;1.30;;
39864;SDS011;25538;48.392;9.976;2022-09-03T16:15:15;1.60;;;1.50;;
39864;SDS011;25538;48.392;9.976;2022-09-03T16:23:11;2.10;;;1.97;;
39864;SDS011;25538;48.392;9.976;2022-09-03T16:25:46;2.33;;;2.23;;
39864;SDS011;25538;48.392;9.976;2022-09-03T16:28:15;2.27;;;2.17;;
39864;SDS011;25538;48.392;9.976;2022-09-03T16:39:27;1.97;;;1.87;;
39864;SDS011;25538;48.392;9.976;2022-09-03T16:42:24;1.97;;;1.87;;
39864;SDS011;25538;48.392;9.976;2022-09-03T16:45:00;1.67;;;1.57;;
39864;SDS011;25538;48.392;9.976;2022-09-03T17:00:48;3.17;;;1.73;;
39864;SDS011;25538;48.392;9.976;2022-09-03T17:12:11;1.40;;;1.30;;
39864;SDS011;25538;48.392;9.976;2022-09-03T17:17:57;1.43;;;1.33;;
39864;SDS011;25538;48.392;9.976;2022-09-03T17:36:29;1.70;;;1.60;;
39864;SDS011;25538;48.392;9.976;2022-09-03T17:45:02;2.17;;;1.60;;
39864;SDS011;25538;48.392;9.976;2022-09-03T17:54:02;1.80;;;1.70;;
39864;SDS011;25538;48.392;9.976;2022-09-03T17:56:28;2.80;;;2.60;;
39864;SDS011;25538;48.392;9.976;2022-09-03T18:01:44;2.30;;;2.20;;
39864;SDS011;25538;48.392;9.976;2022-09-03T18:12:26;4.30;;;4.00;;
39864;SDS011;25538;48.392;9.976;2022-09-03T18:14:55;4.47;;;3.97;;
39864;SDS011;25538;48.392;9.976;2022-09-03T18:17:34;4.20;;;3.90;;
39864;SDS011;25538;48.392;9.976;2022-09-03T18:20:09;4.10;;;3.80;;
39864;SDS011;25538;48.392;9.976;2022-09-03T18:25:53;4.20;;;3.90;;
39864;SDS011;25538;48.392;9.976;2022-09-03T18:31:33;3.70;;;3.50;;
39864;SDS011;25538;48.392;9.976;2022-09-03T18:34:18;4.73;;;4.43;;
39864;SDS011;25538;48.392;9.976;2022-09-03T18:37:06;4.17;;;3.70;;
39864;SDS011;25538;48.392;9.976;2022-09-03T18:39:51;4.27;;;3.87;;
39864;SDS011;25538;48.392;9.976;2022-09-03T18:46:23;3.23;;;3.03;;
39864;SDS011;25538;48.392;9.976;2022-09-03T18:49:31;2.87;;;2.67;;
39864;SDS011;25538;48.392;9.976;2022-09-03T18:55:55;3.43;;;3.20;;
39864;SDS011;25538;48.392;9.976;2022-09-03T18:58:51;5.17;;;4.03;;
39864;SDS011;25538;48.392;9.976;2022-09-03T19:01:56;4.97;;;2.83;;
39864;SDS011;25538;48.392;9.976;2022-09-03T19:13:53;4.50;;;4.20;;
39864;SDS011;25538;48.392;9.976;2022-09-03T19:19:52;5.23;;;4.83;;
39864;SDS011;25538;48.392;9.976;2022-09-03T19:22:41;5.53;;;5.13;;
39864;SDS011;25538;48.392;9.976;2022-09-03T19:25:27;6.30;;;5.80;;
39864;SDS011;25538;48.392;9.976;2022-09-03T19:28:23;5.33;;;4.83;;
39864;SDS011;25538;48.392;9.976;2022-09-03T19:31:11;6.60;;;6.10;;
39864;SDS011;25538;48.392;9.976;2022-09-03T19:34:02;8.87;;;8.07;;
39864;SDS011;25538;48.392;9.976;2022-09-03T19:40:21;7.10;;;6.60;;
39864;SDS011;25538;48.392;9.976;2022-09-03T19:49:21;3.40;;;3.13;;
39864;SDS011;25538;48.392;9.976;2022-09-03T19:55:02;4.78;;;4.30;;
39864;SDS011;25538;48.392;9.976;2022-09-03T19:57:48;4.67;;;4.37;;
39864;SDS011;25538;48.392;9.976;2022-09-03T20:00:38;5.13;;;4.77;;
39864;SDS011;25538;48.392;9.976;2022-09-03T20:03:23;5.40;;;4.90;;
39864;SDS011;25538;48.392;9.976;2022-09-03T20:06:08;5.15;;;4.80;;
39864;SDS011;25538;48.392;9.976;2022-09-03T20:08:53;5.33;;;4.13;;
39864;SDS011;25538;48.392;9.976;2022-09-03T20:11:43;4.73;;;4.43;;
39864;SDS011;25538;48.392;9.976;2022-09-03T20:14:12;4.37;;;4.07;;
39864;SDS011;25538;48.392;9.976;2022-09-03T20:20:09;4.20;;;3.90;;
39864;SDS011;25538;48.392;9.976;2022-09-03T20:25:38;4.55;;;4.15;;
39864;SDS011;25538;48.392;9.976;2022-09-03T20:39:58;4.43;;;4.03;;
39864;SDS011;25538;48.392;9.976;2022-09-03T20:51:16;4.00;;;3.70;;
39864;SDS011;25538;48.392;9.976;2022-09-03T21:19:23;3.40;;;3.20;;
39864;SDS011;25538;48.392;9.976;2022-09-03T21:25:01;3.50;;;3.20;;
39864;SDS011;25538;48.392;9.976;2022-09-03T21:27:39;4.35;;;4.05;;
39864;SDS011;25538;48.392;9.976;2022-09-03T21:30:16;3.38;;;3.05;;
39864;SDS011;25538;48.392;9.976;2022-09-03T21:35:27;3.47;;;3.28;;
39864;SDS011;25538;48.392;9.976;2022-09-03T21:40:31;4.45;;;3.80;;
39864;SDS011;25538;48.392;9.976;2022-09-03T21:43:21;4.20;;;3.80;;
39864;SDS011;25538;48.392;9.976;2022-09-03T21:46:00;5.03;;;4.53;;
39864;SDS011;25538;48.392;9.976;2022-09-03T21:48:46;6.78;;;4.07;;
39864;SDS011;25538;48.392;9.976;2022-09-03T21:59:35;4.50;;;4.10;;
39864;SDS011;25538;48.392;9.976;2022-09-03T22:04:52;4.80;;;4.50;;
39864;SDS011;25538;48.392;9.976;2022-09-03T22:14:55;4.85;;;4.35;;